createdAt,value
2022-10-04T00:01:14.915Z,99644.72
2022-10-04T00:03:43.938Z,99655.13
2022-10-04T00:06:21.425Z,99655.25
2022-10-04T00:08:47.772Z,99651.81
2022-10-04T00:11:25.540Z,99643.25
2022-10-04T00:13:57.507Z,99643.25
2022-10-04T00:16:28.711Z,99640.28
2022-10-04T00:19:14.032Z,99634.84
2022-10-04T00:21:53.328Z,99650.16
2022-10-04T00:24:21.351Z,99643.56
2022-10-04T00:26:47.852Z,99647.00
2022-10-04T00:29:26.556Z,99643.31
2022-10-04T00:32:08.164Z,99643.97
2022-10-04T00:34:51.549Z,99642.94
2022-10-04T00:37:19.288Z,99640.91
2022-10-04T00:39:47.172Z,99629.88
2022-10-04T00:42:13.549Z,99641.38
2022-10-04T00:44:47.013Z,99635.16
2022-10-04T00:47:19.793Z,99630.03
2022-10-04T00:49:47.011Z,99623.94
2022-10-04T00:52:16.419Z,99615.19
2022-10-04T00:54:46.661Z,99615.50
2022-10-04T00:57:19.897Z,99616.66
2022-10-04T00:59:48.845Z,99618.09
2022-10-04T01:02:20.140Z,99615.13
2022-10-04T01:04:51.238Z,99614.59
2022-10-04T01:07:22.574Z,99608.69
2022-10-04T01:09:54.132Z,99616.59
2022-10-04T01:12:31.925Z,99614.59
2022-10-04T01:15:07.486Z,99617.41
2022-10-04T01:17:33.954Z,99609.13
2022-10-04T01:20:00.442Z,99613.06
2022-10-04T01:22:35.399Z,99618.66
2022-10-04T01:25:01.786Z,99613.84
2022-10-04T01:27:42.427Z,99607.91
2022-10-04T01:30:10.962Z,99612.66
2022-10-04T01:32:38.275Z,99611.31
2022-10-04T01:35:05.428Z,99605.53
2022-10-04T01:37:31.874Z,99599.13
2022-10-04T01:39:58.711Z,99598.97
2022-10-04T01:42:29.951Z,99597.34
2022-10-04T01:45:01.313Z,99601.94
2022-10-04T01:47:32.953Z,99594.03
2022-10-04T01:50:02.742Z,99588.09
2022-10-04T01:52:44.035Z,99573.81
2022-10-04T01:55:15.715Z,99563.13
2022-10-04T01:57:46.253Z,99567.38
2022-10-04T02:00:13.698Z,99562.00
2022-10-04T02:02:43.542Z,99565.28
2022-10-04T02:05:11.992Z,99569.25
2022-10-04T02:07:39.528Z,99564.97
2022-10-04T02:10:08.937Z,99560.19
2022-10-04T02:12:35.750Z,99560.94
2022-10-04T02:15:03.195Z,99560.06
2022-10-04T02:17:31.985Z,99561.50
2022-10-04T02:19:59.816Z,99554.09
2022-10-04T02:22:26.742Z,99555.06
2022-10-04T02:24:54.728Z,99555.06
2022-10-04T02:27:26.035Z,99554.41
2022-10-04T02:29:52.396Z,99558.00
2022-10-04T02:32:37.477Z,99561.09
2022-10-04T02:35:04.118Z,99560.09
2022-10-04T02:37:30.677Z,99550.44
2022-10-04T02:40:05.052Z,99541.69
2022-10-04T02:42:40.920Z,99541.69
2022-10-04T02:45:19.335Z,99550.44
2022-10-04T02:47:49.962Z,99546.13
2022-10-04T02:50:35.759Z,99542.31
2022-10-04T02:53:14.181Z,99545.72
2022-10-04T02:55:41.673Z,99537.47
2022-10-04T02:58:13.397Z,99538.59
2022-10-04T03:00:47.980Z,99536.13
2022-10-04T03:03:30.662Z,99533.50
2022-10-04T03:06:08.956Z,99524.47
2022-10-04T03:08:46.703Z,99526.66
2022-10-04T03:11:14.029Z,99515.81
2022-10-04T03:13:41.689Z,99516.63
2022-10-04T03:16:08.377Z,99514.97
2022-10-04T03:18:35.478Z,99508.38
2022-10-04T03:21:03.624Z,99514.28
2022-10-04T03:23:30.846Z,99508.94
2022-10-04T03:26:00.370Z,99506.09
2022-10-04T03:28:27.726Z,99514.63
2022-10-04T03:30:54.795Z,99516.72
2022-10-04T03:33:22.907Z,99513.69
2022-10-04T03:35:51.840Z,99519.56
2022-10-04T03:38:18.772Z,99525.94
2022-10-04T03:40:51.513Z,99516.41
2022-10-04T03:43:17.947Z,99515.81
2022-10-04T03:45:44.530Z,99508.31
2022-10-04T03:48:13.234Z,99510.47
2022-10-04T03:50:46.260Z,99505.75
2022-10-04T03:53:18.808Z,99515.09
2022-10-04T03:55:45.776Z,99523.84
2022-10-04T03:58:14.247Z,99525.78
2022-10-04T04:03:46.005Z,99530.97
2022-10-04T04:06:15.964Z,99534.88
2022-10-04T04:08:44.700Z,99527.81
2022-10-04T04:11:18.824Z,99534.59
2022-10-04T04:13:51.916Z,99538.69
2022-10-04T04:16:20.189Z,99532.50
2022-10-04T04:18:48.485Z,99532.16
2022-10-04T04:21:18.578Z,99533.84
2022-10-04T04:23:49.381Z,99532.03
2022-10-04T04:26:28.177Z,99535.47
2022-10-04T04:28:58.077Z,99534.78
2022-10-04T04:31:27.063Z,99539.84
2022-10-04T04:34:01.326Z,99539.09
2022-10-04T04:36:28.822Z,99546.75
2022-10-04T04:39:25.099Z,99552.00
2022-10-04T04:41:51.780Z,99542.16
2022-10-04T04:44:18.704Z,99543.69
2022-10-04T04:46:46.540Z,99547.66
2022-10-04T04:49:15.657Z,99551.09
2022-10-04T04:51:46.816Z,99558.31
2022-10-04T04:54:14.145Z,99550.75
2022-10-04T04:56:42.375Z,99547.41
2022-10-04T04:59:09.175Z,99543.69
2022-10-04T05:01:36.932Z,99537.81
2022-10-04T05:04:05.753Z,99534.06
2022-10-04T05:06:33.068Z,99530.44
2022-10-04T05:08:59.619Z,99519.63
2022-10-04T05:11:29.520Z,99521.97
2022-10-04T05:14:00.828Z,99517.66
2022-10-04T05:16:42.204Z,99511.91
2022-10-04T05:19:14.745Z,99513.19
2022-10-04T05:21:45.206Z,99510.34
2022-10-04T05:24:21.668Z,99516.19
2022-10-04T05:26:54.732Z,99513.88
2022-10-04T05:29:26.849Z,99502.22
2022-10-04T05:31:56.427Z,99509.06
2022-10-04T05:34:28.399Z,99504.94
2022-10-04T05:37:11.516Z,99506.44
2022-10-04T05:40:08.377Z,99511.53
2022-10-04T05:42:49.702Z,99520.94
2022-10-04T05:45:31.201Z,99516.78
2022-10-04T05:48:01.814Z,99523.56
2022-10-04T05:50:41.748Z,99519.19
2022-10-04T05:53:20.357Z,99514.97
2022-10-04T05:56:05.556Z,99516.03
2022-10-04T05:58:44.298Z,99509.03
2022-10-04T06:01:21.016Z,99509.25
2022-10-04T06:03:50.375Z,99510.44
2022-10-04T06:06:24.180Z,99510.66
2022-10-04T06:09:10.148Z,99508.38
2022-10-04T06:11:38.806Z,99507.78
2022-10-04T06:14:08.041Z,99514.50
2022-10-04T06:16:53.272Z,99517.00
2022-10-04T06:19:19.665Z,99516.38
2022-10-04T06:22:06.543Z,99532.69
2022-10-04T06:24:37.205Z,99539.59
2022-10-04T06:27:09.117Z,99531.56
2022-10-04T06:29:38.394Z,99526.66
2022-10-04T06:32:12.383Z,99530.31
2022-10-04T06:34:51.869Z,99527.22
2022-10-04T06:37:21.056Z,99528.53
2022-10-04T06:40:05.185Z,99524.63
2022-10-04T06:42:39.308Z,99527.44
2022-10-04T06:45:17.976Z,99523.38
2022-10-04T06:48:13.519Z,99532.44
2022-10-04T06:50:51.146Z,99527.84
2022-10-04T06:53:23.409Z,99528.34
2022-10-04T06:55:49.794Z,99518.16
2022-10-04T06:58:16.996Z,99523.59
2022-10-04T07:00:56.897Z,99530.56
2022-10-04T07:03:46.942Z,99542.94
2022-10-04T07:06:21.556Z,99541.19
2022-10-04T07:08:49.945Z,99546.47
2022-10-04T07:11:22.505Z,99542.53
2022-10-04T07:13:56.519Z,99547.47
2022-10-04T07:16:40.239Z,99536.13
2022-10-04T07:19:08.273Z,99534.81
2022-10-04T07:21:54.948Z,99539.16
2022-10-04T07:24:25.611Z,99536.16
2022-10-04T07:26:52.868Z,99537.16
2022-10-04T07:29:32.049Z,99536.16
2022-10-04T07:32:05.535Z,99544.72
2022-10-04T07:34:36.821Z,99551.91
2022-10-04T07:37:13.523Z,99544.47
2022-10-04T07:39:39.857Z,99538.31
2022-10-04T07:42:14.527Z,99548.00
2022-10-04T07:44:43.001Z,99556.41
2022-10-04T07:47:18.151Z,99544.25
2022-10-04T07:49:44.535Z,99538.41
2022-10-04T07:52:10.930Z,99551.56
2022-10-04T07:54:43.399Z,99545.41
2022-10-04T07:57:19.641Z,99538.25
2022-10-04T07:59:48.999Z,99540.19
2022-10-04T08:02:15.448Z,99540.13
2022-10-04T08:05:01.433Z,99536.78
2022-10-04T08:07:46.477Z,99536.44
2022-10-04T08:10:30.276Z,99530.44
2022-10-04T08:13:10.138Z,99530.53
2022-10-04T08:15:37.906Z,99527.66
2022-10-04T08:18:10.489Z,99535.88
2022-10-04T08:20:39.736Z,99529.75
2022-10-04T08:23:24.511Z,99527.81
2022-10-04T08:26:00.389Z,99524.69
2022-10-04T08:28:54.489Z,99523.88
2022-10-04T08:31:26.863Z,99521.59
2022-10-04T08:33:57.809Z,99521.16
2022-10-04T08:36:30.294Z,99512.34
2022-10-04T12:48:48.206Z,98987.09
2022-10-04T12:51:53.116Z,98991.69
2022-10-04T12:54:37.862Z,98989.13
2022-10-04T12:57:08.805Z,98992.31
2022-10-04T13:00:16.722Z,98987.66
2022-10-04T13:03:04.266Z,98980.91
2022-10-04T13:06:02.326Z,98986.72
2022-10-04T13:08:47.726Z,98981.16
2022-10-04T13:11:39.840Z,98981.63
2022-10-04T13:14:45.103Z,98979.75
2022-10-04T13:17:36.140Z,98979.75
2022-10-04T13:20:27.859Z,98971.75
2022-10-04T13:23:14.626Z,98969.31
2022-10-04T13:25:58.852Z,98979.41
2022-10-04T13:28:47.768Z,98973.94
2022-10-04T13:31:24.425Z,98978.25
2022-10-04T13:34:09.484Z,98974.28
2022-10-04T13:37:04.991Z,98978.59
2022-10-04T13:39:54.341Z,98975.91
2022-10-04T13:42:28.633Z,98973.13
2022-10-04T13:45:10.432Z,98974.41
2022-10-04T13:47:55.987Z,98965.91
2022-10-04T13:50:28.214Z,98961.13
2022-10-04T13:54:59.305Z,98955.59
2022-10-04T13:57:37.090Z,98961.19
